Currently 43°F in Anza, California, USA
43°F
52°F / 43°F
calm
0.00"
Wednesday, April 26, 2017 6:46 AM PDT

Anza, California Weather Summary
Last 36 Hours

Temperature Winds Hourly Humidity Dewpoint
Time Report Norm Report Norm Max Gusts Precip. Rpt. Norm Rpt. Norm Pressure
1Wed 06:46 AM  43.3°F  48°F  calm  7 mph  none  0.00"  86%  71%  39°F  39°F  N/A
3Wed 06:39 AM  43.1°F  48°F  calm  6 mph  4 mph  ----  86%  71%  39°F  39°F  N/A
Wed 06:00 AM  45.8°F  47°F  calm  6 mph  8 mph  0.00"  79%  72%  39°F  38°F  N/A
Wed 05:00 AM  51.9°F  47°F  5 mph SW  6 mph  10 mph  0.00"  67%  72%  41°F  38°F  N/A
2Wed 04:58 AM  52.0°F  47°F  5 mph SW  6 mph  9 mph  ----  67%  72%  41°F  38°F  N/A
Wed 04:00 AM  44.3°F  48°F  6 mph NW  6 mph  6 mph  0.00"  85%  73%  40°F  39°F  N/A
Wed 03:00 AM  50.2°F  48°F  4 mph E  6 mph  9 mph  0.00"  75%  73%  42°F  40°F  N/A
Wed 02:00 AM  47.3°F  49°F  6 mph NW  6 mph  9 mph  0.00"  90%  73%  44°F  40°F  N/A
Wed 01:00 AM  49.5°F  49°F  7 mph NW  6 mph  11 mph  0.00"  90%  74%  47°F  40°F  N/A
Wed 12:00 AM  49.0°F  49°F  7 mph NW  6 mph  11 mph  0.00"  95%  74%  48°F  41°F  N/A
Tue 11:00 PM  49.4°F  51°F  7 mph NW  7 mph  13 mph  0.00"  95%  72%  48°F  42°F  N/A
Tue 10:00 PM  49.9°F  52°F  7 mph NW  7 mph  14 mph  0.00"  95%  70%  48°F  42°F  N/A
Tue 09:00 PM  50.2°F  54°F  8 mph NW  8 mph  11 mph  0.00"  95%  66%  49°F  43°F  N/A
Tue 08:00 PM  52.0°F  57°F  7 mph NW  9 mph  14 mph  0.00"  91%  61%  49°F  43°F  N/A
Tue 07:00 PM  54.5°F  62°F  9 mph W  10 mph  18 mph  0.00"  86%  54%  50°F  44°F  N/A
Tue 06:00 PM  57.7°F  66°F  9 mph W  12 mph  24 mph  0.00"  77%  47%  50°F  44°F  N/A
Tue 05:00 PM  59.6°F  68°F  15 mph W  13 mph  23 mph  0.00"  71%  42%  50°F  43°F  N/A
Tue 04:00 PM  61.8°F  70°F  15 mph NW  13 mph  24 mph  0.00"  61%  37%  48°F  42°F  N/A
Tue 03:00 PM  60.1°F  71°F  13 mph W  13 mph  22 mph  0.00"  65%  36%  48°F  41°F  N/A
Tue 02:00 PM  61.1°F  70°F  14 mph W  12 mph  25 mph  0.00"  64%  35%  48°F  41°F  N/A
Tue 01:00 PM  60.9°F  70°F  12 mph W  12 mph  23 mph  0.00"  64%  36%  48°F  40°F  N/A
Tue 12:00 PM  59.5°F  69°F  10 mph W  11 mph  23 mph  0.00"  65%  37%  47°F  40°F  N/A
Tue 11:00 AM  57.7°F  67°F  13 mph NW  11 mph  25 mph  0.00"  68%  39%  47°F  41°F  N/A
Tue 10:00 AM  55.4°F  65°F  15 mph NW  10 mph  25 mph  0.00"  70%  42%  46°F  40°F  N/A
Tue 09:00 AM  52.2°F  62°F  14 mph W  9 mph  23 mph  0.00"  84%  48%  47°F  41°F  N/A
Tue 08:00 AM  48.5°F  57°F  13 mph W  8 mph  21 mph  0.00"  94%  57%  47°F  41°F  N/A
Tue 07:00 AM  47.1°F  50°F  9 mph NW  6 mph  20 mph  0.00"  97%  68%  46°F  39°F  N/A
Tue 06:00 AM  46.7°F  47°F  14 mph NW  6 mph  21 mph  0.00"  97%  69%  46°F  37°F  N/A
Tue 05:00 AM  46.0°F  47°F  11 mph NW  6 mph  19 mph  0.00"  98%  70%  45°F  38°F  N/A
Tue 04:00 AM  47.0°F  48°F  11 mph NW  6 mph  19 mph  0.00"  98%  71%  46°F  38°F  N/A
Tue 03:00 AM  47.2°F  48°F  11 mph NW  6 mph  22 mph  0.00"  98%  71%  47°F  39°F  N/A
Tue 02:00 AM  47.6°F  49°F  11 mph NW  6 mph  23 mph  0.00"  98%  71%  47°F  39°F  N/A
Tue 01:00 AM  48.3°F  49°F  12 mph NW  6 mph  20 mph  0.00"  98%  72%  48°F  40°F  N/A
Tue 12:00 AM  48.9°F  49°F  12 mph NW  6 mph  23 mph  0.00"  98%  72%  48°F  40°F  N/A
Mon 11:00 PM  49.7°F  50°F  11 mph NW  7 mph  21 mph  0.00"  97%  71%  49°F  41°F  N/A
Mon 10:00 PM  50.5°F  52°F  11 mph NW  7 mph  19 mph  0.00"  96%  69%  49°F  42°F  N/A
Mon 09:00 PM  50.9°F  54°F  12 mph NW  7 mph  20 mph  0.00"  96%  65%  50°F  42°F  N/A
Mon 08:00 PM  51.8°F  57°F  12 mph NW  8 mph  23 mph  0.00"  96%  60%  51°F  43°F  N/A
Mon 07:00 PM  53.5°F  62°F  15 mph W  10 mph  26 mph  0.00"  92%  53%  51°F  44°F  N/A

  1. Current weather data. No green row appears if the current weather data is also the high or low for the current day.
  2. High temperature for the current day.
  3. Low temperature for the current day.

The Anza, California weather pages are a service of WeatherCurrents. The Anza Valley is southwestern Riverside County, east of Temecula and Aguanga, south of Mount San Jacinto and west of Mount Santa Rosa.
Copyright ©Wed Apr 26 06:47:02 PDT 2017  WeatherCurrents. All rights reserved. - Submit questions and comments - Privacy Policy

This page automatically refreshes every 10 minutes.